Terminal Aerodrome Forecast
Issued by NWS

Home | Current Version | Previous Version | Text Only | Print | Product List | Glossary On
Versions: 1 2 3 4 5 6 7 8 9 10 11 12 13 14 15 16 17
180
FTUS41 KPBZ 081720
TAFFKL
TAF
KFKL 081720Z 0818/0918 27015G25KT P6SM -SHSN OVC020
     FM090300 27012G22KT 5SM -SHSN OVC020
     FM091400 27010G20KT 2SM -SHSN OVC020
      AMD NOT SKED=

USA.gov is the U.S. government's official web portal to all federal, state and local government web resources and services.